sensor_id;sensor_type;location;lat;lon;timestamp;pressure;altitude;pressure_sealevel;temperature;humidity
64243;BME280;50573;51.512;5.386;2023-02-28T00:00:12;102811.00;;;0.05;87.92
64243;BME280;50573;51.512;5.386;2023-02-28T00:10:17;102814.13;;;-0.02;88.48
64243;BME280;50573;51.512;5.386;2023-02-28T00:20:23;102814.44;;;-0.04;88.54
64243;BME280;50573;51.512;5.386;2023-02-28T00:30:27;102813.13;;;-0.15;89.02
64243;BME280;50573;51.512;5.386;2023-02-28T00:40:31;102811.06;;;-0.26;89.89
64243;BME280;50573;51.512;5.386;2023-02-28T00:50:34;102815.09;;;-0.37;89.55
64243;BME280;50573;51.512;5.386;2023-02-28T01:00:38;102803.25;;;-0.45;90.96
64243;BME280;50573;51.512;5.386;2023-02-28T01:10:42;102819.25;;;-0.62;89.42
64243;BME280;50573;51.512;5.386;2023-02-28T01:20:46;102825.47;;;-0.75;91.09
64243;BME280;50573;51.512;5.386;2023-02-28T01:30:51;102831.88;;;-0.84;91.25
64243;BME280;50573;51.512;5.386;2023-02-28T01:40:55;102836.22;;;-0.88;91.10
64243;BME280;50573;51.512;5.386;2023-02-28T01:51:01;102811.97;;;-0.92;91.39
64243;BME280;50573;51.512;5.386;2023-02-28T02:01:07;102795.44;;;-0.94;93.09
64243;BME280;50573;51.512;5.386;2023-02-28T02:11:11;102798.38;;;-1.04;91.84
64243;BME280;50573;51.512;5.386;2023-02-28T02:32:14;102789.34;;;-0.86;93.43
64243;BME280;50573;51.512;5.386;2023-02-28T02:42:27;102784.72;;;-0.72;93.17
64243;BME280;50573;51.512;5.386;2023-02-28T02:52:35;102789.81;;;-0.62;93.41
64243;BME280;50573;51.512;5.386;2023-02-28T03:02:43;102798.88;;;-0.32;92.51
64243;BME280;50573;51.512;5.386;2023-02-28T03:12:55;102780.53;;;-0.17;91.56
64243;BME280;50573;51.512;5.386;2023-02-28T03:23:13;102784.50;;;-0.06;91.01
64243;BME280;50573;51.512;5.386;2023-02-28T03:33:19;102777.75;;;0.06;90.17
64243;BME280;50573;51.512;5.386;2023-02-28T03:43:28;102779.31;;;0.15;90.23
64243;BME280;50573;51.512;5.386;2023-02-28T03:53:34;102790.22;;;0.27;89.68
64243;BME280;50573;51.512;5.386;2023-02-28T04:03:39;102786.78;;;0.44;88.60
64243;BME280;50573;51.512;5.386;2023-02-28T04:13:43;102789.94;;;0.54;87.75
64243;BME280;50573;51.512;5.386;2023-02-28T04:23:49;102791.50;;;0.64;87.38
64243;BME280;50573;51.512;5.386;2023-02-28T04:33:52;102796.72;;;0.69;87.29
64243;BME280;50573;51.512;5.386;2023-02-28T04:43:57;102803.47;;;0.83;86.15
64243;BME280;50573;51.512;5.386;2023-02-28T04:53:59;102811.06;;;0.90;86.25
64243;BME280;50573;51.512;5.386;2023-02-28T05:04:04;102811.69;;;0.87;85.80
64243;BME280;50573;51.512;5.386;2023-02-28T05:14:11;102801.88;;;0.91;85.53
64243;BME280;50573;51.512;5.386;2023-02-28T05:24:16;102815.94;;;0.96;84.74
64243;BME280;50573;51.512;5.386;2023-02-28T05:34:24;102824.47;;;1.07;84.72
64243;BME280;50573;51.512;5.386;2023-02-28T05:44:28;102821.91;;;1.10;83.63
64243;BME280;50573;51.512;5.386;2023-02-28T05:54:32;102824.75;;;1.05;83.33
64243;BME280;50573;51.512;5.386;2023-02-28T06:04:36;102815.13;;;0.96;83.79
64243;BME280;50573;51.512;5.386;2023-02-28T06:14:39;102824.31;;;0.95;84.69
64243;BME280;50573;51.512;5.386;2023-02-28T06:24:43;102836.75;;;0.91;84.81
64243;BME280;50573;51.512;5.386;2023-02-28T06:34:47;102840.25;;;1.00;85.20
64243;BME280;50573;51.512;5.386;2023-02-28T06:44:52;102842.13;;;1.08;85.15
64243;BME280;50573;51.512;5.386;2023-02-28T06:54:55;102849.38;;;1.07;85.19
64243;BME280;50573;51.512;5.386;2023-02-28T07:05:04;102854.31;;;0.97;84.38
64243;BME280;50573;51.512;5.386;2023-02-28T07:15:09;102865.50;;;0.99;84.38
64243;BME280;50573;51.512;5.386;2023-02-28T07:25:14;102869.59;;;0.88;84.45
64243;BME280;50573;51.512;5.386;2023-02-28T07:35:17;102883.34;;;0.95;84.03
64243;BME280;50573;51.512;5.386;2023-02-28T07:45:22;102878.13;;;0.98;83.72
64243;BME280;50573;51.512;5.386;2023-02-28T07:55:25;102892.94;;;1.30;83.08
64243;BME280;50573;51.512;5.386;2023-02-28T08:05:30;102901.22;;;1.71;78.86
64243;BME280;50573;51.512;5.386;2023-02-28T08:15:33;102902.63;;;2.23;71.49
64243;BME280;50573;51.512;5.386;2023-02-28T08:25:38;102901.41;;;2.41;62.31
64243;BME280;50573;51.512;5.386;2023-02-28T08:35:41;102904.53;;;2.43;61.21
64243;BME280;50573;51.512;5.386;2023-02-28T08:45:46;102900.16;;;2.39;61.00
64243;BME280;50573;51.512;5.386;2023-02-28T08:55:56;102893.34;;;2.41;60.64
64243;BME280;50573;51.512;5.386;2023-02-28T09:06:00;102899.91;;;2.52;57.01
64243;BME280;50573;51.512;5.386;2023-02-28T09:16:05;102896.91;;;2.74;56.56
64243;BME280;50573;51.512;5.386;2023-02-28T09:26:15;102905.06;;;2.87;51.31
64243;BME280;50573;51.512;5.386;2023-02-28T09:36:19;102902.81;;;2.88;49.57
64243;BME280;50573;51.512;5.386;2023-02-28T09:46:33;102911.22;;;3.08;48.19
64243;BME280;50573;51.512;5.386;2023-02-28T09:56:40;102896.56;;;3.17;47.59
64243;BME280;50573;51.512;5.386;2023-02-28T10:06:49;102900.34;;;3.37;45.77
64243;BME280;50573;51.512;5.386;2023-02-28T10:16:55;102899.28;;;3.62;44.99
64243;BME280;50573;51.512;5.386;2023-02-28T10:27:06;102891.66;;;3.64;44.19
64243;BME280;50573;51.512;5.386;2023-02-28T10:37:14;102891.50;;;3.81;44.00
64243;BME280;50573;51.512;5.386;2023-02-28T10:47:19;102875.66;;;3.91;44.40
64243;BME280;50573;51.512;5.386;2023-02-28T10:57:23;102880.16;;;3.87;44.49
64243;BME280;50573;51.512;5.386;2023-02-28T11:07:28;102875.09;;;4.22;44.25
64243;BME280;50573;51.512;5.386;2023-02-28T11:17:55;102860.25;;;4.28;45.24
64243;BME280;50573;51.512;5.386;2023-02-28T11:28:03;102847.00;;;4.23;45.32
64243;BME280;50573;51.512;5.386;2023-02-28T11:38:09;102843.06;;;4.33;45.88
64243;BME280;50573;51.512;5.386;2023-02-28T11:48:20;102822.97;;;4.58;45.27
64243;BME280;50573;51.512;5.386;2023-02-28T11:58:38;102824.97;;;4.73;45.45
64243;BME280;50573;51.512;5.386;2023-02-28T12:08:58;102825.22;;;4.95;45.73
64243;BME280;50573;51.512;5.386;2023-02-28T12:19:13;102818.88;;;5.03;45.07
64243;BME280;50573;51.512;5.386;2023-02-28T12:29:21;102803.94;;;5.21;44.89
64243;BME280;50573;51.512;5.386;2023-02-28T12:39:26;102783.78;;;5.03;44.12
64243;BME280;50573;51.512;5.386;2023-02-28T12:49:44;102784.47;;;5.16;44.05
64243;BME280;50573;51.512;5.386;2023-02-28T12:59:52;102780.31;;;5.18;44.04
64243;BME280;50573;51.512;5.386;2023-02-28T13:10:00;102766.63;;;5.11;43.86
64243;BME280;50573;51.512;5.386;2023-02-28T13:20:15;102742.22;;;5.39;43.86
64243;BME280;50573;51.512;5.386;2023-02-28T13:51:44;102745.53;;;5.63;43.54
64243;BME280;50573;51.512;5.386;2023-02-28T14:02:06;102732.47;;;5.65;44.02
64243;BME280;50573;51.512;5.386;2023-02-28T14:12:56;102711.34;;;5.87;44.77
64243;BME280;50573;51.512;5.386;2023-02-28T14:23:04;102730.41;;;5.94;43.47
64243;BME280;50573;51.512;5.386;2023-02-28T14:33:20;102733.53;;;5.96;43.85
64243;BME280;50573;51.512;5.386;2023-02-28T14:43:26;102713.91;;;5.99;44.77
64243;BME280;50573;51.512;5.386;2023-02-28T14:53:36;102721.44;;;5.90;44.67
64243;BME280;50573;51.512;5.386;2023-02-28T15:03:40;102709.81;;;5.89;44.89
64243;BME280;50573;51.512;5.386;2023-02-28T15:13:49;102713.97;;;5.83;45.38
64243;BME280;50573;51.512;5.386;2023-02-28T15:23:55;102710.53;;;5.86;47.15
64243;BME280;50573;51.512;5.386;2023-02-28T15:34:05;102708.34;;;5.92;46.46
64243;BME280;50573;51.512;5.386;2023-02-28T15:44:26;102716.47;;;5.76;46.30
64243;BME280;50573;51.512;5.386;2023-02-28T15:54:34;102714.81;;;5.72;46.93
64243;BME280;50573;51.512;5.386;2023-02-28T16:04:55;102720.06;;;5.64;47.48
64243;BME280;50573;51.512;5.386;2023-02-28T16:15:08;102704.84;;;5.41;48.21
64243;BME280;50573;51.512;5.386;2023-02-28T16:25:13;102704.47;;;5.27;48.92
64243;BME280;50573;51.512;5.386;2023-02-28T16:35:18;102714.50;;;5.11;49.44
64243;BME280;50573;51.512;5.386;2023-02-28T16:45:23;102725.09;;;4.88;50.12
64243;BME280;50573;51.512;5.386;2023-02-28T16:55:29;102724.03;;;4.77;50.92
64243;BME280;50573;51.512;5.386;2023-02-28T17:05:35;102729.56;;;4.53;52.61
64243;BME280;50573;51.512;5.386;2023-02-28T17:15:43;102734.16;;;4.25;54.25
64243;BME280;50573;51.512;5.386;2023-02-28T17:25:49;102759.16;;;3.98;54.90
64243;BME280;50573;51.512;5.386;2023-02-28T17:36:00;102771.06;;;3.73;56.32
64243;BME280;50573;51.512;5.386;2023-02-28T17:46:03;102783.19;;;3.43;57.00
64243;BME280;50573;51.512;5.386;2023-02-28T17:56:12;102797.81;;;3.09;58.65
64243;BME280;50573;51.512;5.386;2023-02-28T18:06:19;102795.72;;;2.61;59.56
64243;BME280;50573;51.512;5.386;2023-02-28T18:16:24;102797.44;;;2.25;60.06
64243;BME280;50573;51.512;5.386;2023-02-28T18:26:28;102783.66;;;2.06;61.64
64243;BME280;50573;51.512;5.386;2023-02-28T18:36:33;102786.38;;;1.97;62.76
64243;BME280;50573;51.512;5.386;2023-02-28T18:46:36;102788.31;;;1.88;63.92
64243;BME280;50573;51.512;5.386;2023-02-28T18:56:41;102784.34;;;1.65;63.61
64243;BME280;50573;51.512;5.386;2023-02-28T19:06:44;102789.50;;;1.41;64.72
64243;BME280;50573;51.512;5.386;2023-02-28T19:16:49;102792.03;;;1.29;65.42
64243;BME280;50573;51.512;5.386;2023-02-28T19:26:52;102801.81;;;1.25;66.51
64243;BME280;50573;51.512;5.386;2023-02-28T19:36:57;102800.09;;;1.20;66.34
64243;BME280;50573;51.512;5.386;2023-02-28T19:47:00;102800.00;;;1.00;66.32
64243;BME280;50573;51.512;5.386;2023-02-28T19:57:05;102812.97;;;0.81;67.10
64243;BME280;50573;51.512;5.386;2023-02-28T20:07:08;102808.53;;;0.76;67.86
64243;BME280;50573;51.512;5.386;2023-02-28T20:17:12;102812.97;;;0.64;68.19
64243;BME280;50573;51.512;5.386;2023-02-28T20:27:16;102815.50;;;0.52;68.94
64243;BME280;50573;51.512;5.386;2023-02-28T20:37:20;102819.72;;;0.53;69.35
64243;BME280;50573;51.512;5.386;2023-02-28T20:47:23;102815.03;;;0.58;69.42
64243;BME280;50573;51.512;5.386;2023-02-28T20:57:28;102807.44;;;0.52;70.72
64243;BME280;50573;51.512;5.386;2023-02-28T21:07:32;102805.53;;;0.35;70.29
64243;BME280;50573;51.512;5.386;2023-02-28T21:17:36;102810.44;;;0.42;70.74
64243;BME280;50573;51.512;5.386;2023-02-28T21:27:40;102814.38;;;0.36;71.19
64243;BME280;50573;51.512;5.386;2023-02-28T21:37:44;102811.34;;;0.29;71.58
64243;BME280;50573;51.512;5.386;2023-02-28T21:47:47;102806.16;;;0.24;71.61
64243;BME280;50573;51.512;5.386;2023-02-28T21:57:52;102802.66;;;0.23;72.55
64243;BME280;50573;51.512;5.386;2023-02-28T22:07:55;102795.56;;;0.19;72.29
64243;BME280;50573;51.512;5.386;2023-02-28T22:18:00;102800.13;;;0.10;72.54
64243;BME280;50573;51.512;5.386;2023-02-28T22:28:03;102813.22;;;0.20;73.22
64243;BME280;50573;51.512;5.386;2023-02-28T22:38:08;102812.13;;;0.21;73.17
64243;BME280;50573;51.512;5.386;2023-02-28T22:48:12;102815.72;;;0.08;73.20
64243;BME280;50573;51.512;5.386;2023-02-28T22:58:16;102831.59;;;-0.05;73.90
64243;BME280;50573;51.512;5.386;2023-02-28T23:08:19;102815.94;;;-0.28;75.15
64243;BME280;50573;51.512;5.386;2023-02-28T23:18:25;102828.22;;;-0.27;74.62
64243;BME280;50573;51.512;5.386;2023-02-28T23:28:28;102819.31;;;-0.45;74.80
64243;BME280;50573;51.512;5.386;2023-02-28T23:38:33;102810.72;;;-0.64;75.63
64243;BME280;50573;51.512;5.386;2023-02-28T23:48:37;102833.09;;;-0.60;76.29
64243;BME280;50573;51.512;5.386;2023-02-28T23:58:42;102830.25;;;-0.33;75.80
